9°C Temp
7°C Dewpoint
87% Humidity
Temperature
8 KM/H
5 MPH
4 KTS
150°
South South
East

Wind Speed
Partly Cloudy
Conditions
Pressure 1022.92 (hPa) - 30.21 (in)
Visibility 5.6 (mi) - 9.0 (km)

Current Conditions
YMML
Location 60(km)
Metar :YMML 160249Z 15004KT 9000 FEW006 09/07 Q1023 FM0315 18005KT CAVOK
Thu 16th July 12:49 pm

Airport
  Metar Aviation API Data Provided by https://www.checkwx.com/ PHP scripts by weather34.com ©2020